createdAt,value
2023-03-06T00:02:53.089Z,-1.76
2023-03-06T00:07:56.126Z,1.81
2023-03-06T00:13:04.971Z,3.30
2023-03-06T00:18:08.565Z,0.46
2023-03-06T00:23:12.229Z,-1.29
2023-03-06T00:28:16.001Z,-1.74
2023-03-06T00:33:19.047Z,1.80
2023-03-06T00:38:22.254Z,3.31
2023-03-06T00:43:25.365Z,0.42
2023-03-06T00:48:28.367Z,-1.36
2023-03-06T00:53:31.372Z,-1.73
2023-03-06T00:58:34.380Z,1.94
2023-03-06T01:03:37.588Z,3.35
2023-03-06T01:08:40.700Z,0.52
2023-03-06T01:13:44.686Z,-1.41
2023-03-06T01:18:48.067Z,-2.36
2023-03-06T01:23:51.642Z,-1.29
2023-03-06T01:28:54.657Z,-0.62
2023-03-06T01:33:57.562Z,-0.84
2023-03-06T01:39:00.578Z,-0.93
2023-03-06T01:44:03.887Z,-0.61
2023-03-06T01:49:18.680Z,0.14
2023-03-06T01:54:26.985Z,1.66
2023-03-06T01:59:30.709Z,3.72
2023-03-06T02:04:35.374Z,1.05
2023-03-06T02:09:39.095Z,-1.20
2023-03-06T02:14:42.776Z,-0.13
2023-03-06T02:20:04.678Z,1.51
2023-03-06T02:25:32.358Z,-1.01
2023-03-06T02:30:36.234Z,-2.36
2023-03-06T02:35:40.553Z,0.46
2023-03-06T02:40:47.420Z,2.64
2023-03-06T02:45:52.004Z,0.10
2023-03-06T02:50:55.027Z,-1.84
2023-03-06T02:55:57.973Z,-0.81
2023-03-06T03:01:00.971Z,2.76
2023-03-06T03:06:06.109Z,2.37
2023-03-06T03:11:09.554Z,-0.58
2023-03-06T03:16:15.704Z,-1.57
2023-03-06T03:21:19.527Z,1.92
2023-03-06T03:26:22.779Z,2.35
2023-03-06T03:31:25.997Z,-0.66
2023-03-06T03:36:29.087Z,-2.19
2023-03-06T03:41:33.665Z,-0.29
2023-03-06T03:46:36.778Z,1.21
2023-03-06T03:51:39.845Z,-1.25
2023-03-06T03:56:44.573Z,-1.16
2023-03-06T04:01:47.517Z,0.16
2023-03-06T04:06:50.702Z,-1.32
2023-03-06T04:11:53.714Z,-1.12
2023-03-06T04:16:56.721Z,1.11
2023-03-06T04:21:59.754Z,-1.03
2023-03-06T04:27:02.625Z,-1.69
2023-03-06T04:32:06.018Z,-0.14
2023-03-06T04:37:23.620Z,-0.48
2023-03-06T04:42:26.705Z,-0.90
2023-03-06T04:47:29.709Z,0.52
2023-03-06T04:52:32.825Z,-1.42
2023-03-06T04:57:36.897Z,0.02
2023-03-06T05:02:39.853Z,0.42
2023-03-06T05:07:43.267Z,-0.97
2023-03-06T05:12:46.400Z,1.21
2023-03-06T05:17:49.585Z,-0.27
2023-03-06T05:22:52.699Z,-0.99
2023-03-06T05:27:55.600Z,1.65
2023-03-06T05:32:59.706Z,-0.12
2023-03-06T05:38:02.741Z,1.77
2023-03-06T05:43:06.982Z,4.09
2023-03-06T05:48:13.265Z,2.89
2023-03-06T05:53:16.281Z,2.90
2023-03-06T05:58:19.263Z,3.55
2023-03-06T06:03:23.090Z,4.52
2023-03-06T06:08:26.213Z,5.74
2023-03-06T06:13:29.105Z,6.87
2023-03-06T06:18:32.012Z,7.80
2023-03-06T06:23:35.631Z,8.23
2023-03-06T06:28:38.985Z,8.86
2023-03-06T06:33:42.363Z,9.83
2023-03-06T06:38:45.579Z,10.74
2023-03-06T06:43:48.582Z,11.41
2023-03-06T06:48:54.864Z,11.66
2023-03-06T06:53:58.650Z,11.26
2023-03-06T06:59:15.770Z,11.77
2023-03-06T07:04:20.367Z,12.81
2023-03-06T07:09:23.858Z,13.58
2023-03-06T07:14:27.505Z,14.10
2023-03-06T07:19:30.613Z,14.64
2023-03-06T07:24:33.724Z,15.35
2023-03-06T07:29:36.839Z,15.56
2023-03-06T07:34:39.944Z,15.63
2023-03-06T07:39:43.464Z,15.98
2023-03-06T07:44:46.573Z,16.16
2023-03-06T07:49:49.578Z,16.37
2023-03-06T07:54:52.483Z,16.51
2023-03-06T07:59:55.546Z,16.55
2023-03-06T08:04:58.494Z,16.90
2023-03-06T08:10:01.609Z,17.30
2023-03-06T08:15:05.483Z,17.07
2023-03-06T08:20:10.511Z,16.82
2023-03-06T08:25:13.696Z,16.90
2023-03-06T08:30:17.187Z,17.14
2023-03-06T08:35:20.382Z,17.24
2023-03-06T08:40:23.529Z,16.60
2023-03-06T08:45:26.652Z,13.72
2023-03-06T08:50:29.743Z,10.63
2023-03-06T08:55:37.258Z,8.32
2023-03-06T09:00:40.445Z,6.79
2023-03-06T09:05:43.985Z,5.78
2023-03-06T09:10:48.559Z,5.15
2023-03-06T09:15:51.636Z,4.75
2023-03-06T09:20:54.747Z,4.54
2023-03-06T09:25:59.698Z,4.52
2023-03-06T09:31:17.313Z,4.53
2023-03-06T09:36:22.817Z,4.63
2023-03-06T09:41:29.412Z,4.73
2023-03-06T09:46:46.136Z,4.92
2023-03-06T09:52:28.357Z,5.03
2023-03-06T09:57:35.864Z,4.99
2023-03-06T10:02:46.388Z,5.01
2023-03-06T10:07:57.246Z,5.22
2023-03-06T10:13:06.493Z,5.53
2023-03-06T10:18:11.916Z,5.66
2023-03-06T10:23:27.080Z,5.74
2023-03-06T10:28:41.223Z,5.80
2023-03-06T10:33:57.436Z,5.76
2023-03-06T10:39:04.948Z,5.78
2023-03-06T10:44:09.501Z,5.87
2023-03-06T10:49:35.947Z,5.86
2023-03-06T10:54:42.720Z,5.77
2023-03-06T11:00:25.891Z,5.80
2023-03-06T11:05:28.792Z,5.93
2023-03-06T11:10:32.314Z,6.01
2023-03-06T11:15:35.877Z,6.11
2023-03-06T11:20:52.558Z,6.20
2023-03-06T11:26:02.660Z,6.21
2023-03-06T11:31:17.283Z,6.18
2023-03-06T11:36:28.099Z,6.05
2023-03-06T11:42:01.624Z,5.81
2023-03-06T11:47:23.323Z,5.62
2023-03-06T11:52:54.834Z,5.59
2023-03-06T11:58:16.581Z,5.61
2023-03-06T12:03:25.339Z,5.50
2023-03-06T12:08:40.516Z,5.39
2023-03-06T12:13:59.453Z,5.36
2023-03-06T12:19:36.501Z,5.47
2023-03-06T12:25:06.957Z,5.57
2023-03-06T12:30:35.454Z,5.61
2023-03-06T12:35:55.171Z,5.43
2023-03-06T12:41:26.321Z,5.23
2023-03-06T12:46:30.762Z,5.09
2023-03-06T12:51:34.702Z,5.01
2023-03-06T12:56:39.816Z,5.34
2023-03-06T13:02:08.512Z,5.68
2023-03-06T13:07:39.111Z,5.78
2023-03-06T13:13:08.743Z,5.62
2023-03-06T13:18:24.243Z,5.40
2023-03-06T13:23:33.326Z,5.27
2023-03-06T13:28:50.206Z,5.25
2023-03-06T13:33:54.859Z,5.07
2023-03-06T13:39:09.732Z,4.86
2023-03-06T13:44:24.680Z,4.67
2023-03-06T13:49:28.552Z,4.44
2023-03-06T13:54:56.658Z,4.30
2023-03-06T14:00:51.064Z,4.18
2023-03-06T14:05:54.388Z,4.02
2023-03-06T14:11:27.497Z,3.79
2023-03-06T14:16:49.364Z,3.58
2023-03-06T14:21:56.953Z,3.36
2023-03-06T14:26:59.960Z,3.22
2023-03-06T14:32:06.190Z,3.10
2023-03-06T14:37:20.948Z,3.03
2023-03-06T14:42:27.311Z,2.92
2023-03-06T14:47:32.988Z,2.84
2023-03-06T14:52:36.316Z,2.85
2023-03-06T14:57:39.609Z,2.82
2023-03-06T15:02:43.031Z,2.71
2023-03-06T15:07:46.520Z,2.54
2023-03-06T15:12:49.553Z,2.36
2023-03-06T15:17:53.069Z,2.11
2023-03-06T15:22:56.069Z,1.83
2023-03-06T15:28:43.525Z,1.59
2023-03-06T15:34:09.364Z,1.36
2023-03-06T15:39:41.251Z,1.16
2023-03-06T15:44:48.095Z,0.95
2023-03-06T15:49:53.298Z,0.74
2023-03-06T15:54:56.316Z,0.53
2023-03-06T16:00:01.560Z,0.33
2023-03-06T16:05:15.027Z,0.09
2023-03-06T16:10:27.455Z,-0.11
2023-03-06T16:15:33.938Z,-0.31
2023-03-06T16:20:36.936Z,-0.49
2023-03-06T16:25:42.219Z,-0.65
2023-03-06T16:30:46.030Z,-0.81
2023-03-06T16:35:50.089Z,-0.94
2023-03-06T16:40:53.055Z,-1.04
2023-03-06T16:45:56.658Z,-1.11
2023-03-06T16:51:00.124Z,-1.16
2023-03-06T16:56:03.106Z,-1.18
2023-03-06T17:01:07.337Z,-1.23
2023-03-06T17:06:17.939Z,-1.31
2023-03-06T17:11:20.929Z,-1.43
2023-03-06T17:16:23.938Z,-1.54
2023-03-06T17:21:27.161Z,-1.63
2023-03-06T17:26:30.359Z,-1.72
2023-03-06T17:31:33.394Z,-1.81
2023-03-06T17:36:36.375Z,-1.91
2023-03-06T17:41:39.584Z,-2.00
2023-03-06T17:46:43.981Z,-2.06
2023-03-06T17:51:47.139Z,-2.11
2023-03-06T17:56:50.253Z,-2.15
2023-03-06T18:01:59.745Z,-2.20
2023-03-06T18:07:02.770Z,-2.25
2023-03-06T18:12:05.861Z,-2.27
2023-03-06T18:17:09.227Z,-2.26
2023-03-06T18:22:12.137Z,-2.25
2023-03-06T18:27:15.136Z,-2.26
2023-03-06T18:32:19.254Z,-2.24
2023-03-06T18:37:22.805Z,-2.23
2023-03-06T18:42:26.829Z,-2.25
2023-03-06T18:47:30.036Z,-2.27
2023-03-06T18:52:34.953Z,-2.30
2023-03-06T18:57:38.437Z,-0.65
2023-03-06T19:02:41.506Z,3.97
2023-03-06T19:07:44.551Z,5.37
2023-03-06T19:12:47.729Z,2.77
2023-03-06T19:17:51.662Z,1.12
2023-03-06T19:22:54.876Z,0.12
2023-03-06T19:27:58.099Z,-0.64
2023-03-06T19:33:01.196Z,-0.03
2023-03-06T19:38:04.308Z,3.72
2023-03-06T19:43:07.215Z,3.95
2023-03-06T19:48:12.512Z,1.49
2023-03-06T19:53:16.316Z,0.11
2023-03-06T19:58:19.517Z,-0.78
2023-03-06T20:03:22.613Z,-0.49
2023-03-06T20:08:25.742Z,2.79
2023-03-06T20:13:28.930Z,4.29
2023-03-06T20:18:32.050Z,1.64
2023-03-06T20:23:35.351Z,0.10
2023-03-06T20:28:40.602Z,0.93
2023-03-06T20:33:48.942Z,4.70
2023-03-06T20:38:52.046Z,2.94
2023-03-06T20:43:55.156Z,0.88
2023-03-06T20:48:58.463Z,-0.24
2023-03-06T20:54:02.348Z,0.57
2023-03-06T20:59:06.298Z,3.55
2023-03-06T21:04:10.715Z,4.36
2023-03-06T21:09:15.922Z,1.82
2023-03-06T21:14:18.829Z,0.31
2023-03-06T21:19:21.828Z,-0.62
2023-03-06T21:24:24.742Z,-0.58
2023-03-06T21:29:27.746Z,2.35
2023-03-06T21:34:30.650Z,4.64
2023-03-06T21:39:33.977Z,2.18
2023-03-06T21:44:37.085Z,0.38
2023-03-06T21:49:40.302Z,0.86
2023-03-06T21:54:43.401Z,4.32
2023-03-06T21:59:46.603Z,2.63
2023-03-06T22:04:53.381Z,0.49
2023-03-06T22:09:56.415Z,-0.74
2023-03-06T22:14:59.516Z,-0.23
2023-03-06T22:20:02.521Z,3.51
2023-03-06T22:25:06.129Z,2.91
2023-03-06T22:30:09.753Z,0.44
2023-03-06T22:35:12.766Z,-0.94
2023-03-06T22:40:16.567Z,-1.04
2023-03-06T22:45:19.589Z,1.47
2023-03-06T22:50:22.702Z,3.83
2023-03-06T22:55:26.320Z,1.77
2023-03-06T23:00:29.324Z,-0.30
2023-03-06T23:05:32.338Z,-0.54
2023-03-06T23:10:39.202Z,1.22
2023-03-06T23:15:42.496Z,2.37
2023-03-06T23:20:45.657Z,2.95
2023-03-06T23:25:49.161Z,1.44
2023-03-06T23:30:52.610Z,-0.52
2023-03-06T23:35:55.628Z,-1.56
2023-03-06T23:41:03.196Z,-0.54
2023-03-06T23:46:07.473Z,0.57
2023-03-06T23:51:19.235Z,1.43
2023-03-06T23:56:22.636Z,2.01
